Time;durP1;ratioP1;P1;durP2;ratioP2;P2;SDS_P1;SDS_P2;PMS_P1;PMS_P2;Temp;Humidity;BMP_temperature;BMP_pressure;BME280_temperature;BME280_humidity;BME280_pressure;Samples;Min_cycle;Max_cycle;Signal;HPM_P1;HPM_P2
2021/05/26 00:00:57;;;;;;;3.35;2.05;;;;;;;2.98;87.77;101240.59;3619657;39;20043;-61
2021/05/26 00:03:25;;;;;;;4.25;2.72;;;;;;;3.01;87.52;101232.78;3627387;39;20061;-60
2021/05/26 00:05:52;;;;;;;3.85;2.20;;;;;;;3.03;88.45;101229.25;3626771;39;20706;-61
2021/05/26 00:08:31;;;;;;;3.08;1.73;;;;;;;3.06;88.95;101215.41;3627298;39;20058;-61
2021/05/26 00:11:00;;;;;;;3.75;2.35;;;;;;;3.07;88.98;101228.28;3627093;39;20051;-62
2021/05/26 00:13:28;;;;;;;4.45;1.98;;;;;;;3.11;88.57;101223.06;3625477;39;20071;-62
2021/05/26 00:15:55;;;;;;;5.45;3.22;;;;;;;3.14;87.49;101221.25;3617980;39;20059;-61
2021/05/26 00:18:23;;;;;;;3.97;2.60;;;;;;;3.17;87.10;101217.72;3624459;39;20401;-61
2021/05/26 00:20:52;;;;;;;3.50;1.98;;;;;;;3.14;88.77;101212.66;3626879;39;20122;-60
2021/05/26 00:23:21;;;;;;;3.38;2.30;;;;;;;3.18;88.26;101214.25;3627315;39;20061;-62
2021/05/26 00:25:49;;;;;;;2.97;2.17;;;;;;;3.20;88.79;101215.91;3617773;39;20046;-61
2021/05/26 00:28:16;;;;;;;2.55;1.70;;;;;;;3.23;89.53;101214.97;3608168;39;20055;-61
2021/05/26 00:30:51;;;;;;;2.88;2.00;;;;;;;3.27;88.39;101208.84;3617993;39;20278;-61
2021/05/26 00:33:20;;;;;;;2.53;1.60;;;;;;;3.28;88.62;101216.56;3618104;39;20068;-62
2021/05/26 00:35:48;;;;;;;3.33;1.83;;;;;;;3.31;89.10;101213.88;3618120;39;20159;-62
2021/05/26 00:38:16;;;;;;;3.00;1.80;;;;;;;3.32;88.50;101215.59;3621659;39;20054;-61
2021/05/26 00:40:44;;;;;;;2.90;1.98;;;;;;;3.34;87.87;101206.06;3609446;39;20054;-62
2021/05/26 00:43:11;;;;;;;3.85;2.38;;;;;;;3.37;87.11;101202.56;3625998;39;20066;-61
2021/05/26 00:45:39;;;;;;;5.40;2.65;;;;;;;3.37;87.29;101210.31;3618140;39;20071;-62
2021/05/26 00:48:07;;;;;;;3.17;2.10;;;;;;;3.39;88.22;101203.34;3617290;39;20313;-62
2021/05/26 00:50:36;;;;;;;3.63;1.70;;;;;;;3.36;87.92;101206.00;3617777;39;20039;-62
2021/05/26 00:53:06;;;;;;;3.38;2.35;;;;;;;3.39;87.49;101208.53;3617969;39;20062;-61
2021/05/26 00:55:34;;;;;;;2.90;2.00;;;;;;;3.41;87.37;101209.31;3607825;39;20385;-62
2021/05/26 00:58:04;;;;;;;2.90;1.80;;;;;;;3.42;87.45;101210.16;3617459;39;20139;-61
2021/05/26 01:00:36;;;;;;;3.05;2.00;;;;;;;3.42;87.61;101211.03;3617610;39;20059;-61
2021/05/26 01:03:14;;;;;;;3.83;2.67;;;;;;;3.44;87.39;101204.06;3626771;39;20038;-61
2021/05/26 01:05:43;;;;;;;4.63;3.05;;;;;;;3.44;87.09;101209.25;3617409;39;20051;-61
2021/05/26 01:08:12;;;;;;;3.38;2.20;;;;;;;3.44;89.00;101213.56;3626595;39;20405;-62
2021/05/26 01:10:40;;;;;;;3.38;1.98;;;;;;;3.36;89.68;101207.75;3626397;39;20058;-62
2021/05/26 01:13:10;;;;;;;4.10;2.20;;;;;;;3.40;89.15;101209.38;3625976;39;20327;-61
2021/05/26 01:15:39;;;;;;;5.45;2.83;;;;;;;3.44;88.42;101214.41;3619237;39;20050;-61
2021/05/26 01:18:30;;;;;;;3.25;2.17;;;;;;;3.47;88.79;101209.19;3621630;39;20043;-61
2021/05/26 01:21:07;;;;;;;2.80;2.08;;;;;;;3.47;88.81;101211.75;3617239;39;20051;-62
2021/05/26 01:23:36;;;;;;;3.42;2.40;;;;;;;3.50;88.46;101210.81;3618038;39;20054;-61
2021/05/26 01:26:06;;;;;;;3.05;2.17;;;;;;;3.52;88.41;101212.47;3608224;39;20053;-63
2021/05/26 01:28:36;;;;;;;2.90;2.00;;;;;;;3.53;89.02;101203.81;3607965;39;20040;-63
2021/05/26 01:31:21;;;;;;;3.33;2.00;;;;;;;3.51;88.84;101215.09;3621633;39;20072;-62
2021/05/26 01:33:55;;;;;;;3.78;2.00;;;;;;;3.53;89.15;101218.50;3615307;39;20428;-62
2021/05/26 01:36:25;;;;;;;2.58;1.63;;;;;;;3.58;88.37;101208.88;3626770;39;20127;-62
2021/05/26 01:38:52;;;;;;;5.93;2.08;;;;;;;3.62;88.17;101207.06;3619498;39;20043;-62
2021/05/26 01:41:21;;;;;;;3.75;2.50;;;;;;;3.61;88.07;101208.81;3616994;39;20140;-62
2021/05/26 01:43:49;;;;;;;4.05;2.88;;;;;;;3.64;89.02;101202.69;3617569;39;20058;-62
2021/05/26 01:46:21;;;;;;;3.15;2.17;;;;;;;3.61;90.71;101201.03;3608007;39;20043;-62
2021/05/26 01:48:50;;;;;;;3.25;2.28;;;;;;;3.60;90.46;101205.34;3617848;39;20346;-62
2021/05/26 01:51:18;;;;;;;3.03;2.00;;;;;;;3.67;89.65;101205.19;3617185;39;20329;-62
2021/05/26 01:53:46;;;;;;;3.80;2.75;;;;;;;3.67;89.41;101206.03;3617559;39;20058;-62
2021/05/26 01:56:22;;;;;;;4.43;2.50;;;;;;;3.70;89.82;101200.75;3626057;39;20039;-63
2021/05/26 01:59:03;;;;;;;3.50;2.38;;;;;;;3.77;89.88;101210.06;3616674;39;20047;-63
2021/05/26 02:01:32;;;;;;;3.05;2.08;;;;;;;3.82;90.62;101209.91;3617278;39;20155;-63
2021/05/26 02:04:04;;;;;;;4.47;2.80;;;;;;;3.88;89.93;101206.31;3617468;39;20039;-62
2021/05/26 02:06:32;;;;;;;5.95;4.07;;;;;;;3.92;90.36;101201.00;3609652;39;20412;-63
2021/05/26 02:08:59;;;;;;;4.18;3.10;;;;;;;3.94;91.66;101207.00;3618662;39;20051;-62
2021/05/26 02:14:17;;;;;;;4.95;3.53;;;;;;;4.03;92.27;101204.09;3626572;39;20082;-63
2021/05/26 02:16:52;;;;;;;6.22;3.83;;;;;;;4.11;90.55;101207.31;3627453;39;20043;-62
2021/05/26 02:19:21;;;;;;;4.25;3.22;;;;;;;4.18;91.37;101201.94;3627833;39;20066;-62
2021/05/26 02:21:48;;;;;;;4.15;3.00;;;;;;;4.22;91.97;101200.97;3627655;39;20055;-63
2021/05/26 02:24:17;;;;;;;5.63;4.18;;;;;;;4.28;91.69;101200.81;3618049;39;20074;-62
2021/05/26 02:26:44;;;;;;;7.22;4.30;;;;;;;4.29;91.30;101197.31;3627495;39;20043;-63
2021/05/26 02:29:12;;;;;;;5.45;3.90;;;;;;;4.31;91.17;101191.19;3627790;39;20150;-62
2021/05/26 02:31:39;;;;;;;3.88;2.80;;;;;;;4.38;90.98;101201.38;3627931;39;20143;-61
2021/05/26 02:34:07;;;;;;;5.20;3.47;;;;;;;4.42;89.54;101201.22;3620681;39;20081;-60
2021/05/26 02:36:35;;;;;;;12.18;7.50;;;;;;;4.47;89.95;101198.50;3627377;39;20043;-60
2021/05/26 02:39:03;;;;;;;51.45;22.60;;;;;;;4.53;89.14;101206.91;3620457;39;20055;-63
2021/05/26 02:41:30;;;;;;;30.77;15.25;;;;;;;4.62;89.13;101204.03;3618940;39;20120;-60
2021/05/26 02:43:58;;;;;;;14.32;8.25;;;;;;;4.70;90.19;101205.50;3612861;39;20131;-62
2021/05/26 02:46:25;;;;;;;7.88;5.03;;;;;;;4.77;90.65;101202.69;3627500;39;20193;-60
2021/05/26 02:48:53;;;;;;;7.30;5.10;;;;;;;4.86;91.04;101204.97;3627864;39;20332;-61
2021/05/26 02:51:21;;;;;;;4.80;3.63;;;;;;;4.95;90.81;101201.25;3617911;39;20043;-62
2021/05/26 02:53:51;;;;;;;6.10;4.18;;;;;;;5.04;90.75;101207.88;3627024;39;20123;-62
2021/05/26 02:56:19;;;;;;;7.57;4.00;;;;;;;5.14;90.31;101212.69;3627699;39;20130;-61
2021/05/26 02:59:07;;;;;;;4.55;2.67;;;;;;;5.25;90.09;101208.88;3627446;39;20046;-65
2021/05/26 03:01:58;;;;;;;11.45;6.68;;;;;;;5.41;91.12;101212.59;3621287;39;20042;-61
2021/05/26 03:04:43;;;;;;;63.60;27.88;;;;;;;5.56;89.83;101219.03;3608224;39;20109;-70
2021/05/26 03:07:13;;;;;;;7.03;4.00;;;;;;;5.70;89.65;101210.72;3618797;39;20398;-59
2021/05/26 03:09:41;;;;;;;6.65;3.88;;;;;;;5.82;89.69;101213.72;3618193;39;20078;-60
2021/05/26 03:12:09;;;;;;;7.05;2.90;;;;;;;5.98;90.14;101215.78;3618530;39;20058;-61
2021/05/26 03:14:46;;;;;;;4.65;2.40;;;;;;;6.16;89.09;101215.09;3616019;39;20075;-62
2021/05/26 03:17:14;;;;;;;57.40;25.73;;;;;;;6.32;89.28;101212.78;3625576;39;20131;-67
2021/05/26 03:19:42;;;;;;;33.58;14.55;;;;;;;6.46;88.49;101209.59;3608265;39;20083;-63
2021/05/26 03:22:38;;;;;;;9.52;5.15;;;;;;;6.60;88.17;101208.19;3580258;39;20045;-60
2021/05/26 03:25:36;;;;;;;2.78;1.67;;;;;;;6.62;86.56;101216.75;3625210;39;20047;-63
2021/05/26 03:28:09;;;;;;;3.50;1.83;;;;;;;6.74;86.30;101209.34;3618438;39;20127;-62
2021/05/26 03:30:36;;;;;;;3.67;1.90;;;;;;;6.82;86.32;101213.34;3618246;39;20055;-63
2021/05/26 03:33:04;;;;;;;3.80;1.50;;;;;;;6.87;85.55;101219.19;3618109;39;20054;-61
2021/05/26 03:35:32;;;;;;;2.53;1.52;;;;;;;6.86;85.53;101222.72;3618310;39;20047;-62
2021/05/26 03:38:00;;;;;;;3.17;1.70;;;;;;;6.88;85.10;101225.25;3621751;39;20038;-61
2021/05/26 03:40:31;;;;;;;2.47;1.48;;;;;;;6.94;85.11;101227.59;3626902;39;20051;-61
2021/05/26 03:43:03;;;;;;;2.08;1.38;;;;;;;7.01;85.99;101220.38;3617933;39;20047;-61
2021/05/26 03:45:38;;;;;;;5.07;2.00;;;;;;;7.02;85.80;101215.13;3617045;39;20296;-60
2021/05/26 03:48:09;;;;;;;2.22;1.50;;;;;;;7.05;86.37;101219.34;3618218;39;20047;-61
2021/05/26 03:50:37;;;;;;;3.83;1.85;;;;;;;7.07;85.81;101217.53;3617952;39;20055;-62
2021/05/26 03:53:07;;;;;;;2.60;1.63;;;;;;;7.13;85.74;101225.09;3618255;39;20494;-61
2021/05/26 03:55:35;;;;;;;3.28;2.25;;;;;;;7.10;85.76;101220.84;3618365;39;20438;-60
2021/05/26 03:58:21;;;;;;;2.40;1.67;;;;;;;7.12;86.11;101220.78;3619053;39;20054;-61
2021/05/26 04:00:49;;;;;;;2.83;1.60;;;;;;;6.99;84.79;101225.66;3618019;39;20054;-57
2021/05/26 04:03:21;;;;;;;2.58;1.50;;;;;;;7.03;84.97;101216.81;3608897;39;20043;-60
2021/05/26 04:05:49;;;;;;;3.47;2.10;;;;;;;7.05;85.58;101225.41;3618126;39;20050;-62
2021/05/26 04:08:17;;;;;;;3.15;1.85;;;;;;;7.07;85.48;101226.16;3607920;39;20108;-61
2021/05/26 04:10:47;;;;;;;3.28;1.70;;;;;;;7.10;85.44;101215.66;3617891;39;20062;-61
2021/05/26 04:13:37;;;;;;;2.63;1.67;;;;;;;7.12;85.40;101225.97;3618070;39;20346;-61
2021/05/26 04:16:18;;;;;;;3.05;1.35;;;;;;;7.03;84.68;101219.44;3617182;39;20047;-61
2021/05/26 04:19:04;;;;;;;3.63;1.45;;;;;;;7.13;85.64;101222.50;3608088;39;20035;-62
2021/05/26 04:21:31;;;;;;;2.90;1.60;;;;;;;7.13;85.22;101220.72;3617877;39;20051;-62
2021/05/26 04:23:59;;;;;;;1.73;1.40;;;;;;;7.13;85.76;101231.13;3608329;39;20139;-61
2021/05/26 04:26:27;;;;;;;2.70;1.45;;;;;;;7.16;85.69;101224.94;3618184;39;20054;-74
2021/05/26 04:28:54;;;;;;;15.23;7.50;;;;;;;7.20;85.94;101229.09;3617548;39;20035;-60
2021/05/26 04:31:23;;;;;;;4.65;2.72;;;;;;;7.16;84.95;101228.38;3617637;39;20067;-62
2021/05/26 04:33:51;;;;;;;1.77;1.13;;;;;;;7.16;85.54;101237.94;3618043;39;20071;-61
2021/05/26 04:36:18;;;;;;;2.08;1.17;;;;;;;7.16;85.10;101230.16;3617911;39;20047;-61
2021/05/26 04:38:45;;;;;;;2.05;1.10;;;;;;;7.06;85.04;101234.03;3623381;39;20047;-62
2021/05/26 04:41:13;;;;;;;1.75;1.00;;;;;;;7.12;85.28;101228.56;3626940;39;20122;-62
2021/05/26 04:43:40;;;;;;;2.15;1.15;;;;;;;7.19;86.39;101224.81;3617338;39;20083;-60
2021/05/26 04:46:08;;;;;;;3.42;1.30;;;;;;;7.24;85.95;101228.06;3617317;39;20081;-62
2021/05/26 04:48:36;;;;;;;2.35;1.33;;;;;;;7.27;85.67;101230.56;3617406;39;20051;-60
2021/05/26 04:51:03;;;;;;;1.70;1.02;;;;;;;7.24;84.70;101235.03;3618127;39;20043;-62
2021/05/26 04:53:31;;;;;;;1.75;0.90;;;;;;;7.32;85.71;101230.38;3608764;39;20039;-62
2021/05/26 04:55:58;;;;;;;1.27;0.90;;;;;;;7.36;84.98;101227.56;3620026;39;20059;-63
2021/05/26 04:58:26;;;;;;;2.00;0.88;;;;;;;7.40;84.24;101230.84;3599768;39;20058;-61
2021/05/26 05:00:53;;;;;;;3.30;0.98;;;;;;;7.35;83.75;101231.06;3617384;39;20043;-61
2021/05/26 05:03:20;;;;;;;2.00;0.95;;;;;;;7.27;82.45;101235.75;3617813;39;20055;-62
2021/05/26 05:05:47;;;;;;;1.73;1.00;;;;;;;7.36;83.02;101235.38;3617938;39;20044;-63
2021/05/26 05:08:15;;;;;;;1.50;0.88;;;;;;;7.50;83.46;101236.50;3617856;39;20055;-61
2021/05/26 05:10:42;;;;;;;1.20;0.70;;;;;;;7.35;80.97;101232.81;3617116;39;20087;-62
2021/05/26 05:13:10;;;;;;;15.00;7.60;;;;;;;7.50;82.04;101234.78;3617530;39;20051;-66
2021/05/26 05:15:37;;;;;;;3.65;1.25;;;;;;;7.47;80.86;101236.66;3618143;39;20055;-62
2021/05/26 05:18:04;;;;;;;3.67;1.17;;;;;;;7.48;80.73;101239.19;3626657;39;20057;-64
2021/05/26 05:20:32;;;;;;;2.35;1.17;;;;;;;7.56;81.77;101234.50;3625986;39;20050;-73
2021/05/26 05:22:59;;;;;;;2.63;0.98;;;;;;;7.65;80.69;101235.88;3626643;39;20051;-73
2021/05/26 05:25:27;;;;;;;4.93;0.95;;;;;;;7.76;79.83;101232.78;3617952;39;20055;-65
2021/05/26 05:27:54;;;;;;;2.05;0.85;;;;;;;7.59;78.64;101236.94;3616757;39;20449;-62
2021/05/26 05:30:22;;;;;;;2.15;0.70;;;;;;;7.46;78.45;101234.97;3616367;39;20062;-66
2021/05/26 05:32:49;;;;;;;1.40;0.90;;;;;;;7.40;79.02;101241.28;3623010;39;20345;-65
2021/05/26 05:35:17;;;;;;;3.15;0.70;;;;;;;7.30;77.73;101237.38;3616303;39;20057;-65
2021/05/26 05:37:45;;;;;;;1.10;0.70;;;;;;;7.21;78.28;101246.41;3618702;39;20051;-63
2021/05/26 05:40:13;;;;;;;1.80;0.63;;;;;;;7.14;77.40;101243.22;3625257;39;20416;-65
2021/05/26 05:42:41;;;;;;;1.63;0.70;;;;;;;7.18;76.96;101241.34;3625419;39;20058;-64
2021/05/26 05:45:09;;;;;;;1.23;0.60;;;;;;;7.15;78.54;101244.91;3626624;39;20059;-66
2021/05/26 05:47:37;;;;;;;0.80;0.57;;;;;;;7.16;79.31;101243.16;3626695;39;20046;-64
2021/05/26 05:50:05;;;;;;;1.17;0.77;;;;;;;7.28;79.13;101239.19;3626610;39;20039;-64
2021/05/26 05:52:32;;;;;;;0.65;0.50;;;;;;;7.29;78.06;101238.28;3617514;39;20436;-63
2021/05/26 05:55:00;;;;;;;0.77;0.65;;;;;;;7.38;79.10;101235.28;3617326;39;20069;-65
2021/05/26 05:57:28;;;;;;;1.25;0.70;;;;;;;7.48;78.76;101235.75;3617321;39;20047;-62
2021/05/26 05:59:55;;;;;;;2.53;0.80;;;;;;;7.49;80.05;101229.63;3617465;39;20047;-64
2021/05/26 06:02:23;;;;;;;2.92;0.90;;;;;;;7.62;80.10;101234.22;3617945;39;20047;-65
2021/05/26 06:04:50;;;;;;;1.60;0.70;;;;;;;7.74;79.99;101229.38;3617452;39;20087;-64
2021/05/26 06:07:18;;;;;;;1.02;0.70;;;;;;;7.79;78.40;101232.66;3607631;39;20050;-66
2021/05/26 06:09:45;;;;;;;2.00;0.85;;;;;;;7.74;76.31;101225.06;3617366;39;20312;-67
2021/05/26 06:12:12;;;;;;;1.67;0.77;;;;;;;7.80;77.13;101235.19;3617199;39;20401;-66
2021/05/26 06:14:41;;;;;;;2.42;0.82;;;;;;;7.88;77.98;101219.19;3607914;39;20053;-66
2021/05/26 06:17:09;;;;;;;1.42;0.90;;;;;;;7.88;76.34;101224.41;3617523;39;20047;-64
2021/05/26 06:19:36;;;;;;;1.67;0.70;;;;;;;7.89;74.79;101221.75;3626420;39;20074;-66
2021/05/26 06:22:04;;;;;;;4.63;0.77;;;;;;;8.03;76.60;101220.28;3626460;39;20043;-63
2021/05/26 06:24:31;;;;;;;0.77;0.60;;;;;;;8.25;77.47;101214.91;3626128;39;20043;-66
2021/05/26 06:26:59;;;;;;;1.85;0.70;;;;;;;8.31;75.43;101222.44;3626506;39;20058;-66
2021/05/26 06:29:26;;;;;;;1.50;0.80;;;;;;;8.49;76.10;101216.38;3617461;39;20425;-62
2021/05/26 06:31:54;;;;;;;1.85;0.73;;;;;;;8.63;76.08;101219.16;3607814;39;20059;-65
2021/05/26 06:34:22;;;;;;;1.55;0.88;;;;;;;8.65;74.56;101209.53;3616993;39;20051;-65
2021/05/26 06:36:49;;;;;;;3.03;0.50;;;;;;;8.58;75.02;101202.91;3617589;39;20317;-62
2021/05/26 06:39:17;;;;;;;1.95;0.70;;;;;;;8.48;73.27;101206.88;3625050;39;20079;-66
2021/05/26 06:41:45;;;;;;;3.00;0.90;;;;;;;8.50;73.51;101210.28;3626357;39;20131;-63
2021/05/26 06:44:12;;;;;;;0.75;0.43;;;;;;;8.69;74.03;101197.19;3626128;39;20075;-66
2021/05/26 06:46:40;;;;;;;1.13;0.70;;;;;;;8.85;73.79;101197.28;3625925;39;20053;-64
2021/05/26 06:49:08;;;;;;;1.83;0.70;;;;;;;8.94;73.43;101202.88;3626139;39;20043;-64
2021/05/26 06:51:35;;;;;;;3.00;0.98;;;;;;;8.95;74.08;101191.50;3626293;39;20055;-62
2021/05/26 06:54:03;;;;;;;0.90;0.50;;;;;;;9.06;73.41;101195.34;3616861;39;20046;-65
2021/05/26 06:56:31;;;;;;;4.68;0.98;;;;;;;9.13;74.46;101191.53;3618494;39;20059;-62
2021/05/26 06:58:59;;;;;;;2.50;0.65;;;;;;;9.18;74.76;101192.97;3618638;39;20411;-65
2021/05/26 07:01:26;;;;;;;1.85;0.85;;;;;;;9.17;73.63;101200.88;3618633;39;20047;-64
2021/05/26 07:03:53;;;;;;;3.53;1.67;;;;;;;9.23;75.50;101196.19;3618580;39;20139;-64
2021/05/26 07:06:21;;;;;;;3.70;1.58;;;;;;;9.39;74.50;101190.16;3618533;39;20374;-65
2021/05/26 07:08:49;;;;;;;1.95;1.00;;;;;;;9.39;75.40;101196.22;3618154;39;20071;-65
2021/05/26 07:11:17;;;;;;;2.42;1.15;;;;;;;9.57;73.87;101189.22;3618767;39;20055;-64
2021/05/26 07:13:44;;;;;;;1.90;0.98;;;;;;;9.66;73.00;101185.28;3627462;39;20131;-65
2021/05/26 07:16:12;;;;;;;2.47;0.82;;;;;;;9.84;73.05;101188.69;3627562;39;20049;-63
2021/05/26 07:18:42;;;;;;;1.65;0.88;;;;;;;9.84;70.81;101192.13;3617933;39;20050;-62
2021/05/26 07:21:10;;;;;;;1.20;0.70;;;;;;;9.81;71.46;101188.84;3627439;39;20093;-65
2021/05/26 07:23:38;;;;;;;1.88;1.00;;;;;;;9.85;70.70;101177.28;3627648;39;20043;-61
2021/05/26 07:26:05;;;;;;;4.00;1.10;;;;;;;9.93;71.71;101175.13;3627660;39;20039;-65
2021/05/26 07:28:33;;;;;;;2.42;1.05;;;;;;;10.12;72.56;101182.81;3627629;39;20054;-64
2021/05/26 07:31:02;;;;;;;1.65;0.70;;;;;;;10.18;71.85;101177.22;3627109;39;20057;-64
2021/05/26 07:33:30;;;;;;;2.28;1.02;;;;;;;10.35;71.21;101182.41;3627439;39;20043;-64
2021/05/26 07:35:58;;;;;;;1.30;1.00;;;;;;;10.38;70.72;101174.34;3627695;39;20302;-62
2021/05/26 07:38:37;;;;;;;2.63;0.90;;;;;;;10.28;69.65;101167.13;3622253;39;20051;-62
2021/05/26 07:41:05;;;;;;;3.47;1.00;;;;;;;10.34;69.84;101162.38;3618369;39;20102;-64
2021/05/26 07:43:33;;;;;;;1.80;0.80;;;;;;;10.45;70.24;101173.09;3618695;39;20039;-65
2021/05/26 07:46:02;;;;;;;4.03;1.20;;;;;;;10.45;71.60;101164.41;3618332;39;20063;-65
2021/05/26 07:48:30;;;;;;;1.52;0.80;;;;;;;10.46;70.11;101159.09;3618409;39;20069;-64
2021/05/26 07:50:58;;;;;;;1.60;0.68;;;;;;;10.56;70.59;101156.78;3618252;39;20061;-65
2021/05/26 07:53:25;;;;;;;2.83;0.82;;;;;;;10.47;68.36;101150.31;3608607;39;20062;-62
2021/05/26 07:55:53;;;;;;;4.70;0.93;;;;;;;10.73;69.22;101151.44;3618186;39;20039;-65
2021/05/26 07:58:20;;;;;;;2.70;0.75;;;;;;;10.63;67.17;101157.28;3618603;39;20085;-64
2021/05/26 08:00:50;;;;;;;1.63;0.80;;;;;;;10.69;67.39;101141.25;3622496;39;20408;-62
2021/05/26 08:03:18;;;;;;;1.83;0.80;;;;;;;10.81;67.35;101139.66;3617765;39;20112;-64
2021/05/26 08:05:46;;;;;;;2.70;1.00;;;;;;;11.02;67.61;101139.25;3627043;39;20149;-65
2021/05/26 08:08:14;;;;;;;1.52;0.70;;;;;;;10.91;64.05;101140.81;3627245;39;20104;-62
2021/05/26 08:10:42;;;;;;;2.00;0.70;;;;;;;10.84;64.90;101144.72;3627098;39;20054;-63
2021/05/26 08:13:09;;;;;;;1.95;0.95;;;;;;;10.81;63.71;101140.50;3618147;39;20038;-63
2021/05/26 08:15:37;;;;;;;2.47;0.80;;;;;;;10.92;65.11;101137.25;3618255;39;20058;-66
2021/05/26 08:18:13;;;;;;;1.67;0.70;;;;;;;11.06;63.41;101147.75;3618315;39;20051;-65
2021/05/26 08:20:41;;;;;;;5.13;1.65;;;;;;;11.06;61.38;101146.91;3618421;39;20043;-61
2021/05/26 08:23:08;;;;;;;3.25;0.90;;;;;;;10.91;60.42;101140.81;3618145;39;20560;-65
2021/05/26 08:25:35;;;;;;;3.25;2.20;;;;;;;11.00;61.67;101141.09;3618038;39;20046;-66
2021/05/26 08:28:03;;;;;;;1.83;1.08;;;;;;;11.14;60.92;101142.91;3618140;39;20054;-63
2021/05/26 08:30:31;;;;;;;2.03;0.75;;;;;;;11.25;61.54;101148.34;3618200;39;20035;-65
2021/05/26 08:32:58;;;;;;;3.33;0.73;;;;;;;11.25;59.22;101139.63;3618101;39;20051;-63
2021/05/26 08:35:26;;;;;;;3.45;2.25;;;;;;;11.38;61.54;101135.34;3617774;39;20074;-65
2021/05/26 08:37:57;;;;;;;3.15;1.38;;;;;;;11.24;61.18;101133.56;3620872;39;20154;-66
2021/05/26 08:40:25;;;;;;;6.63;0.70;;;;;;;11.44;61.87;101134.97;3627184;39;20067;-65
2021/05/26 08:42:54;;;;;;;4.68;0.63;;;;;;;11.53;59.73;101129.16;3627076;39;20042;-65
2021/05/26 08:45:21;;;;;;;11.18;0.93;;;;;;;11.41;58.63;101122.06;3626629;39;20045;-65
2021/05/26 08:47:52;;;;;;;2.88;0.50;;;;;;;11.33;58.64;101129.53;3627053;39;20394;-65
2021/05/26 08:50:21;;;;;;;0.68;0.47;;;;;;;11.44;59.37;101124.50;3627020;39;20047;-64
2021/05/26 08:52:49;;;;;;;3.03;0.68;;;;;;;11.48;58.27;101130.38;3626637;39;20062;-63
2021/05/26 08:55:20;;;;;;;2.58;0.43;;;;;;;11.51;59.40;101124.94;3626952;39;20401;-62
2021/05/26 08:57:47;;;;;;;3.35;0.70;;;;;;;11.47;57.36;101121.66;3626965;39;20039;-64
2021/05/26 09:00:16;;;;;;;4.07;0.75;;;;;;;11.43;59.71;101127.19;3626631;39;20050;-65
2021/05/26 09:02:43;;;;;;;2.25;0.60;;;;;;;11.52;56.06;101121.38;3617803;39;20416;-65
2021/05/26 09:05:22;;;;;;;1.33;0.57;;;;;;;11.34;57.49;101114.66;3617679;39;20084;-62
2021/05/26 09:07:50;;;;;;;2.17;0.63;;;;;;;11.69;59.66;101104.63;3626906;39;20049;-66
2021/05/26 09:10:19;;;;;;;2.33;0.60;;;;;;;11.51;55.57;101109.22;3627016;39;20066;-66
2021/05/26 09:12:47;;;;;;;3.10;0.80;;;;;;;11.52;56.66;101097.81;3626832;39;20523;-66
2021/05/26 09:15:20;;;;;;;1.75;0.60;;;;;;;11.72;57.46;101102.63;3617577;39;20383;-64
2021/05/26 09:17:56;;;;;;;1.83;0.60;;;;;;;11.80;56.18;101097.75;3617352;39;20054;-65
2021/05/26 09:20:28;;;;;;;4.10;0.90;;;;;;;12.02;58.03;101099.91;3617774;39;20047;-65
2021/05/26 09:23:16;;;;;;;3.67;1.08;;;;;;;12.16;53.31;101106.03;3617715;39;20042;-64
2021/05/26 09:25:48;;;;;;;2.70;0.60;;;;;;;12.10;54.91;101093.31;3626794;39;20123;-65
2021/05/26 09:28:25;;;;;;;1.65;0.60;;;;;;;12.27;54.03;101096.50;3627079;39;20070;-66
2021/05/26 09:30:58;;;;;;;3.53;0.70;;;;;;;12.35;54.32;101082.91;3626526;39;20066;-65
2021/05/26 09:33:30;;;;;;;21.20;1.20;;;;;;;12.24;51.16;101075.72;3623408;39;20054;-65
2021/05/26 09:36:22;;;;;;;1.20;0.57;;;;;;;12.43;52.14;101082.38;3617811;39;20104;-65
2021/05/26 09:38:57;;;;;;;6.97;0.90;;;;;;;12.61;50.88;101061.94;3624068;39;20138;-65
2021/05/26 09:41:28;;;;;;;2.13;0.65;;;;;;;12.74;52.89;101062.81;3617489;39;20057;-64
2021/05/26 09:44:11;;;;;;;2.15;0.70;;;;;;;12.99;51.28;101070.69;3617637;39;20050;-65
2021/05/26 09:46:45;;;;;;;1.45;0.63;;;;;;;12.90;53.06;101062.59;3625222;39;20072;-62
2021/05/26 09:49:17;;;;;;;1.17;0.40;;;;;;;13.16;55.54;101066.06;3626666;39;20065;-64
2021/05/26 09:51:55;;;;;;;2.43;0.60;;;;;;;13.31;52.52;101068.47;3617708;39;20124;-66
2021/05/26 09:54:27;;;;;;;0.43;0.40;;;;;;;13.32;52.36;101061.44;3617547;39;20439;-64
2021/05/26 09:57:15;;;;;;;1.75;0.70;;;;;;;13.53;52.33;101061.69;3617627;39;20043;-65
2021/05/26 09:59:43;;;;;;;3.58;0.80;;;;;;;13.75;51.54;101048.69;3617354;39;20047;-65
2021/05/26 10:02:12;;;;;;;0.68;0.43;;;;;;;13.90;51.16;101041.47;3617791;39;20047;-63
2021/05/26 10:04:42;;;;;;;1.15;0.57;;;;;;;14.00;50.17;101037.19;3617229;39;20156;-65
2021/05/26 10:07:28;;;;;;;1.10;0.52;;;;;;;13.73;51.07;101034.81;3625353;39;20050;-65
2021/05/26 10:09:56;;;;;;;2.42;0.77;;;;;;;13.92;52.26;101038.75;3626635;39;20046;-63
2021/05/26 10:12:43;;;;;;;5.82;0.60;;;;;;;14.17;49.86;101030.72;3607614;39;20079;-63
2021/05/26 10:15:12;;;;;;;2.03;0.60;;;;;;;14.36;52.86;101024.91;3607611;39;20044;-65
2021/05/26 10:17:49;;;;;;;1.27;0.60;;;;;;;14.52;51.56;101022.81;3617291;39;20055;-64
2021/05/26 10:20:19;;;;;;;6.68;0.93;;;;;;;14.21;49.37;101016.38;3617491;39;20066;-67
2021/05/26 10:22:49;;;;;;;1.58;0.60;;;;;;;14.14;50.55;101011.69;3624005;39;20086;-65
2021/05/26 10:25:18;;;;;;;2.38;0.60;;;;;;;14.06;49.95;101007.84;3626401;39;20130;-66
2021/05/26 10:27:51;;;;;;;3.03;0.70;;;;;;;14.30;49.96;101015.69;3626634;39;20046;-61
2021/05/26 10:30:24;;;;;;;2.30;0.77;;;;;;;14.24;47.99;101003.00;3628040;39;20042;-62
2021/05/26 10:33:04;;;;;;;6.18;0.88;;;;;;;14.17;45.58;101004.41;3628042;39;20059;-64
2021/05/26 10:35:55;;;;;;;12.55;1.10;;;;;;;14.17;45.14;100993.03;3618882;39;20043;-64
2021/05/26 10:38:22;;;;;;;2.72;0.60;;;;;;;13.98;47.83;100983.06;3623382;39;20090;-62
2021/05/26 10:40:52;;;;;;;1.02;0.60;;;;;;;13.80;48.58;100983.47;3627858;39;20058;-65
2021/05/26 10:43:20;;;;;;;1.85;0.55;;;;;;;13.99;50.17;100988.19;3625721;39;20047;-66
2021/05/26 10:45:53;;;;;;;3.08;0.80;;;;;;;14.20;49.18;100974.41;3618687;39;20058;-63
2021/05/26 10:48:40;;;;;;;;;;;;;;;13.88;46.05;100982.06;3619202;39;21100;-64
2021/05/26 10:51:08;;;;;;;1.55;0.52;;;;;;;13.93;47.22;100966.78;3626338;39;19939;-65
2021/05/26 10:53:45;;;;;;;1.08;0.50;;;;;;;14.36;50.42;100969.66;3627713;39;20043;-65
2021/05/26 10:56:36;;;;;;;6.60;1.00;;;;;;;14.07;43.15;100975.31;3608971;39;20413;-65
2021/05/26 10:59:10;;;;;;;1.27;0.55;;;;;;;14.01;45.63;100967.91;3627657;39;20063;-63
2021/05/26 11:02:07;;;;;;;1.70;0.50;;;;;;;14.15;46.04;100955.47;3627858;39;20158;-64
2021/05/26 11:04:40;;;;;;;1.85;0.68;;;;;;;14.22;46.17;100962.78;3628296;39;20058;-65
2021/05/26 11:07:24;;;;;;;1.73;0.73;;;;;;;14.32;46.88;100957.66;3627571;39;20043;-62
2021/05/26 11:10:02;;;;;;;1.27;0.50;;;;;;;14.31;44.83;100954.19;3627769;39;20050;-63
2021/05/26 11:12:55;;;;;;;1.27;0.57;;;;;;;14.51;47.28;100947.44;3619236;39;20347;-66
2021/05/26 11:15:41;;;;;;;0.80;0.60;;;;;;;14.42;44.29;100937.59;3618393;39;20044;-66
2021/05/26 11:18:17;;;;;;;1.38;0.50;;;;;;;14.46;43.43;100938.19;3625477;39;20058;-63
2021/05/26 11:20:45;;;;;;;1.77;0.65;;;;;;;14.78;45.35;100931.28;3627533;39;20047;-65
2021/05/26 11:23:14;;;;;;;1.95;0.50;;;;;;;14.87;45.22;100935.00;3627213;39;20039;-64
2021/05/26 11:25:55;;;;;;;2.08;0.50;;;;;;;14.88;42.55;100936.66;3617776;39;20060;-66
2021/05/26 11:28:27;;;;;;;3.78;0.80;;;;;;;14.95;41.34;100922.03;3627342;39;20051;-64
2021/05/26 11:31:05;;;;;;;1.05;0.40;;;;;;;14.98;41.80;100913.91;3627645;39;20054;-66
2021/05/26 11:33:33;;;;;;;0.90;0.47;;;;;;;14.69;42.22;100915.38;3627157;39;20049;-67
2021/05/26 11:36:06;;;;;;;3.88;0.70;;;;;;;14.91;43.44;100907.47;3627547;39;20174;-61
2021/05/26 11:38:34;;;;;;;2.42;0.60;;;;;;;14.42;43.38;100910.44;3621905;39;20429;-67
2021/05/26 11:41:15;;;;;;;4.00;0.55;;;;;;;14.30;41.76;100902.53;3617809;39;20409;-65
2021/05/26 11:43:43;;;;;;;1.95;0.50;;;;;;;14.66;43.80;100895.38;3608793;39;20333;-65
2021/05/26 11:46:11;;;;;;;1.17;0.43;;;;;;;14.79;43.97;100888.19;3618678;39;20054;-65
2021/05/26 11:48:46;;;;;;;4.40;0.70;;;;;;;14.45;41.24;100886.53;3618273;39;20059;-63